createdAt,value
2022-12-04T00:01:23.918Z,90.10
2022-12-04T00:04:26.795Z,90.14
2022-12-04T00:07:29.761Z,89.86
2022-12-04T00:10:32.662Z,89.89
2022-12-04T00:13:36.425Z,90.12
2022-12-04T00:16:39.351Z,89.97
2022-12-04T00:19:44.883Z,90.17
2022-12-04T00:22:47.739Z,90.20
2022-12-04T00:25:50.521Z,89.84
2022-12-04T00:28:53.742Z,89.76
2022-12-04T00:31:56.538Z,89.78
2022-12-04T00:34:59.399Z,89.83
2022-12-04T00:38:02.221Z,89.68
2022-12-04T00:41:05.300Z,89.82
2022-12-04T00:44:08.216Z,89.73
2022-12-04T00:47:10.999Z,90.24
2022-12-04T00:50:13.796Z,89.99
2022-12-04T00:53:16.940Z,90.11
2022-12-04T00:56:24.121Z,89.95
2022-12-04T00:59:26.975Z,89.84
2022-12-04T01:02:30.853Z,89.92
2022-12-04T01:05:42.047Z,89.90
2022-12-04T01:08:44.791Z,89.61
2022-12-04T01:11:47.622Z,89.61
2022-12-04T01:14:50.361Z,89.71
2022-12-04T01:17:53.143Z,89.93
2022-12-04T01:20:56.002Z,89.69
2022-12-04T01:23:59.871Z,89.79
2022-12-04T01:27:03.109Z,89.52
2022-12-04T01:30:06.519Z,89.71
2022-12-04T01:33:09.341Z,90.04
2022-12-04T01:36:19.080Z,89.56
2022-12-04T01:39:21.970Z,89.91
2022-12-04T01:42:25.402Z,89.63
2022-12-04T01:45:31.160Z,89.29
2022-12-04T01:48:39.168Z,89.26
2022-12-04T01:51:46.642Z,89.59
2022-12-04T01:54:54.189Z,89.65
2022-12-04T01:57:58.119Z,89.60
2022-12-04T02:01:08.506Z,89.63
2022-12-04T02:04:12.264Z,89.65
2022-12-04T02:07:15.102Z,90.06
2022-12-04T02:10:24.679Z,89.73
2022-12-04T02:13:35.666Z,89.90
2022-12-04T02:17:02.385Z,90.34
2022-12-04T02:20:54.903Z,90.18
2022-12-04T02:24:00.603Z,89.99
2022-12-04T02:27:09.145Z,90.56
2022-12-04T02:30:13.637Z,90.21
2022-12-04T02:33:23.919Z,90.12
2022-12-04T02:36:31.379Z,90.62
2022-12-04T02:39:44.677Z,90.49
2022-12-04T02:42:58.929Z,90.27
2022-12-04T02:46:18.132Z,90.45
2022-12-04T02:49:31.234Z,90.31
2022-12-04T02:52:38.902Z,90.49
2022-12-04T02:55:51.088Z,90.60
2022-12-04T02:59:02.482Z,91.12
2022-12-04T03:02:48.203Z,91.15
2022-12-04T03:05:51.018Z,90.94
2022-12-04T03:09:01.857Z,90.85
2022-12-04T03:12:11.559Z,90.72
2022-12-04T03:15:35.834Z,90.85
2022-12-04T03:19:07.411Z,90.74
2022-12-04T03:22:15.130Z,90.90
2022-12-04T03:25:18.043Z,90.61
2022-12-04T03:28:29.214Z,90.57
2022-12-04T03:31:50.455Z,90.74
2022-12-04T03:35:06.182Z,90.96
2022-12-04T03:38:21.332Z,90.87
2022-12-04T03:41:49.933Z,90.81
2022-12-04T03:45:19.794Z,90.82
2022-12-04T03:48:26.800Z,91.10
2022-12-04T03:51:41.706Z,91.12
2022-12-04T03:54:51.775Z,90.93
2022-12-04T03:58:00.114Z,91.01
2022-12-04T04:01:07.842Z,91.19
2022-12-04T04:04:16.186Z,90.92
2022-12-04T04:07:31.863Z,91.07
2022-12-04T04:10:38.250Z,91.20
2022-12-04T04:14:12.218Z,90.98
2022-12-04T04:17:38.857Z,91.06
2022-12-04T04:21:08.952Z,91.28
2022-12-04T04:24:26.072Z,91.23
2022-12-04T04:27:28.936Z,91.39
2022-12-04T04:30:34.355Z,91.75
2022-12-04T04:33:51.355Z,92.01
2022-12-04T04:37:13.253Z,91.73
2022-12-04T04:40:30.819Z,91.88
2022-12-04T04:43:54.402Z,91.97
2022-12-04T04:47:02.933Z,92.09
2022-12-04T04:50:09.358Z,92.33
2022-12-04T04:53:37.005Z,92.43
2022-12-04T04:56:44.433Z,92.16
2022-12-04T04:59:47.263Z,92.41
2022-12-04T05:02:50.562Z,92.66
2022-12-04T05:05:53.888Z,92.69
2022-12-04T05:08:56.768Z,92.99
2022-12-04T05:11:59.612Z,93.17
2022-12-04T05:15:02.632Z,93.43
2022-12-04T05:18:05.620Z,92.99
2022-12-04T05:21:16.422Z,92.91
2022-12-04T05:24:19.245Z,92.90
2022-12-04T05:27:22.776Z,92.95
2022-12-04T05:30:25.786Z,92.85
2022-12-04T05:33:29.766Z,92.90
2022-12-04T05:36:32.591Z,92.39
2022-12-04T05:39:35.829Z,92.51
2022-12-04T05:42:38.666Z,92.47
2022-12-04T05:45:41.569Z,92.45
2022-12-04T05:48:44.444Z,92.73
2022-12-04T05:51:47.283Z,92.60
2022-12-04T05:54:50.073Z,92.33
2022-12-04T05:57:52.833Z,92.20
2022-12-04T06:00:55.636Z,92.27
2022-12-04T06:03:58.560Z,92.30
2022-12-04T06:07:01.343Z,92.22
2022-12-04T06:10:05.191Z,92.19
2022-12-04T06:13:08.476Z,92.16
2022-12-04T06:16:20.464Z,92.11
2022-12-04T06:19:23.757Z,91.86
2022-12-04T06:22:26.565Z,92.12
2022-12-04T06:25:29.606Z,91.97
2022-12-04T06:28:32.348Z,91.89
2022-12-04T06:31:36.413Z,92.05
2022-12-04T06:34:39.397Z,92.37
2022-12-04T06:37:42.252Z,92.18
2022-12-04T06:40:45.021Z,92.26
2022-12-04T06:43:48.963Z,92.16
2022-12-04T06:46:54.693Z,92.36
2022-12-04T06:49:58.232Z,92.12
2022-12-04T06:53:07.958Z,92.21
2022-12-04T06:56:17.906Z,92.18
2022-12-04T06:59:20.708Z,92.04
2022-12-04T07:02:23.611Z,91.99
2022-12-04T07:05:27.685Z,91.83
2022-12-04T07:08:30.466Z,91.63
2022-12-04T07:11:34.232Z,91.66
2022-12-04T07:14:37.120Z,91.65
2022-12-04T07:17:39.954Z,91.29
2022-12-04T07:20:42.737Z,91.46
2022-12-04T07:23:46.091Z,91.17
2022-12-04T07:26:49.000Z,91.13
2022-12-04T07:29:53.234Z,90.83
2022-12-04T07:32:56.124Z,90.97
2022-12-04T07:36:00.842Z,90.86
2022-12-04T07:39:03.980Z,90.81
2022-12-04T07:42:06.724Z,90.49
2022-12-04T07:45:10.039Z,90.80
2022-12-04T07:48:12.852Z,90.83
2022-12-04T07:51:20.817Z,90.79
2022-12-04T07:54:23.621Z,90.72
2022-12-04T07:57:28.214Z,90.90
2022-12-04T08:00:31.023Z,90.84
2022-12-04T08:03:33.887Z,90.57
2022-12-04T08:06:37.625Z,90.56
2022-12-04T08:09:40.477Z,90.01
2022-12-04T08:12:43.291Z,89.35
2022-12-04T08:15:46.062Z,89.13
2022-12-04T08:18:48.961Z,89.62
2022-12-04T08:21:54.873Z,89.53
2022-12-04T08:24:57.652Z,89.12
2022-12-04T08:28:00.510Z,88.82
2022-12-04T08:31:11.857Z,88.36
2022-12-04T08:34:15.406Z,88.43
2022-12-04T08:37:18.408Z,88.14
2022-12-04T08:40:21.207Z,87.94
2022-12-04T08:43:24.017Z,87.86
2022-12-04T08:46:28.295Z,87.51
2022-12-04T08:49:31.222Z,87.35
2022-12-04T08:52:34.022Z,87.12
2022-12-04T08:55:36.772Z,86.92
2022-12-04T08:58:39.640Z,86.59
2022-12-04T09:01:42.492Z,86.34
2022-12-04T09:04:45.417Z,86.28
2022-12-04T09:07:48.328Z,85.69
2022-12-04T09:10:51.147Z,86.00
2022-12-04T09:13:54.460Z,86.07
2022-12-04T09:16:57.303Z,86.29
2022-12-04T09:20:01.418Z,86.36
2022-12-04T09:23:05.719Z,85.48
2022-12-04T09:26:26.842Z,85.56
2022-12-04T09:29:31.742Z,84.66
2022-12-04T09:32:35.279Z,84.44
2022-12-04T09:35:41.154Z,84.59
2022-12-04T09:38:46.487Z,84.51
2022-12-04T09:42:03.061Z,84.42
2022-12-04T09:45:17.831Z,83.62
2022-12-04T09:48:27.296Z,83.58
2022-12-04T09:51:32.271Z,83.96
2022-12-04T09:54:41.218Z,83.51
2022-12-04T09:57:47.647Z,83.41
2022-12-04T10:00:51.391Z,83.50
2022-12-04T10:03:59.915Z,83.25
2022-12-04T10:07:25.314Z,83.15
2022-12-04T10:10:45.688Z,83.08
2022-12-04T10:13:48.500Z,82.95
2022-12-04T10:17:10.096Z,82.49
2022-12-04T10:20:28.344Z,82.69
2022-12-04T10:23:46.587Z,81.86
2022-12-04T10:26:49.627Z,81.55
2022-12-04T10:29:58.426Z,81.27
2022-12-04T10:33:19.566Z,81.35
2022-12-04T10:36:28.426Z,81.40
2022-12-04T10:39:50.907Z,81.51
2022-12-04T10:43:14.485Z,82.01
2022-12-04T10:46:33.692Z,82.21
2022-12-04T10:49:37.746Z,81.88
2022-12-04T10:52:40.520Z,82.05
2022-12-04T10:55:43.494Z,81.80
2022-12-04T10:59:01.103Z,81.17
2022-12-04T11:02:24.118Z,81.33
2022-12-04T11:05:32.112Z,81.53
2022-12-04T11:08:50.186Z,81.29
2022-12-04T11:11:53.137Z,81.34
2022-12-04T11:15:08.341Z,81.41
2022-12-04T11:18:25.250Z,81.47
2022-12-04T11:21:30.832Z,81.39
2022-12-04T11:24:36.922Z,81.76
2022-12-04T11:27:39.765Z,81.55
2022-12-04T11:30:49.290Z,81.86
2022-12-04T11:34:00.280Z,82.23
2022-12-04T11:37:04.422Z,82.33
2022-12-04T11:40:16.992Z,82.20
2022-12-04T11:43:20.850Z,82.52
2022-12-04T11:46:27.393Z,82.78
2022-12-04T11:49:32.740Z,83.26
2022-12-04T11:52:53.328Z,83.59
2022-12-04T11:56:16.244Z,83.80
2022-12-04T11:59:43.056Z,83.68
2022-12-04T12:03:06.612Z,83.23
2022-12-04T12:06:32.832Z,82.90
2022-12-04T12:09:46.262Z,82.89
2022-12-04T12:12:58.366Z,82.79
2022-12-04T12:16:13.437Z,82.75
2022-12-04T12:19:22.598Z,82.77
2022-12-04T12:22:40.939Z,82.97
2022-12-04T12:26:00.514Z,82.95
2022-12-04T12:29:17.644Z,82.85
2022-12-04T12:32:29.569Z,82.73
2022-12-04T12:35:45.881Z,82.83
2022-12-04T12:39:16.490Z,82.68
2022-12-04T12:42:26.520Z,82.66
2022-12-04T12:45:48.015Z,83.10
2022-12-04T12:49:00.802Z,83.55
2022-12-04T12:52:14.812Z,84.04
2022-12-04T12:55:29.873Z,84.53
2022-12-04T12:58:36.544Z,85.14
2022-12-04T13:01:57.277Z,85.25
2022-12-04T13:05:11.026Z,85.19
2022-12-04T13:08:36.659Z,85.16
2022-12-04T13:11:40.600Z,85.25
2022-12-04T13:14:48.664Z,85.44
2022-12-04T13:17:55.387Z,85.72
2022-12-04T13:21:03.711Z,85.68
2022-12-04T13:24:31.672Z,85.96
2022-12-04T13:27:53.646Z,85.93
2022-12-04T13:31:27.891Z,86.28
2022-12-04T13:35:03.865Z,86.33
2022-12-04T13:38:28.729Z,86.36
2022-12-04T13:41:38.933Z,86.57
2022-12-04T13:44:41.860Z,87.33
2022-12-04T13:47:44.643Z,87.40
2022-12-04T13:50:47.564Z,87.63
2022-12-04T13:54:21.471Z,88.14
2022-12-04T13:57:25.713Z,88.37
2022-12-04T14:00:34.952Z,87.86
2022-12-04T14:03:48.604Z,87.92
2022-12-04T14:06:52.650Z,87.76
2022-12-04T14:09:58.016Z,87.79
2022-12-04T14:13:07.138Z,88.01
2022-12-04T14:16:22.201Z,88.11
2022-12-04T14:19:36.642Z,88.21
2022-12-04T14:22:43.864Z,88.20
2022-12-04T14:25:46.783Z,88.70
2022-12-04T14:28:50.586Z,88.92
2022-12-04T14:31:55.942Z,89.05
2022-12-04T14:34:59.398Z,89.05
2022-12-04T14:38:06.429Z,89.07
2022-12-04T14:41:09.768Z,89.01
2022-12-04T14:44:29.761Z,88.97
2022-12-04T14:48:10.482Z,89.24
2022-12-04T14:51:33.327Z,89.82
2022-12-04T14:54:44.913Z,90.40
2022-12-04T14:57:59.821Z,90.80
2022-12-04T15:01:05.961Z,90.91
2022-12-04T15:04:35.439Z,90.86
2022-12-04T15:07:48.100Z,90.81
2022-12-04T15:11:09.693Z,90.75
2022-12-04T15:14:14.022Z,90.56
2022-12-04T15:17:18.826Z,90.66
2022-12-04T15:20:21.864Z,90.75
2022-12-04T15:23:34.000Z,90.98
2022-12-04T15:26:38.013Z,91.21
2022-12-04T15:29:48.386Z,91.17
2022-12-04T15:32:53.608Z,91.66
2022-12-04T15:36:05.593Z,91.96
2022-12-04T15:39:14.123Z,92.86
2022-12-04T15:42:25.961Z,91.79
2022-12-04T15:45:32.256Z,91.93
2022-12-04T15:48:35.062Z,92.27
2022-12-04T15:51:37.972Z,92.95
2022-12-04T15:54:56.699Z,92.63
2022-12-04T15:58:24.725Z,92.34
2022-12-04T16:01:28.149Z,92.35
2022-12-04T16:04:35.616Z,92.38
2022-12-04T16:07:57.832Z,92.16
2022-12-04T16:11:08.004Z,92.86
2022-12-04T16:14:18.810Z,92.39
2022-12-04T16:17:31.768Z,91.87
2022-12-04T16:20:36.509Z,91.83
2022-12-04T16:23:39.293Z,92.02
2022-12-04T16:26:42.221Z,92.09
2022-12-04T16:29:45.537Z,91.75
2022-12-04T16:32:48.575Z,92.06
2022-12-04T16:35:51.373Z,91.89
2022-12-04T16:38:54.260Z,92.22
2022-12-04T16:41:57.236Z,91.96
2022-12-04T16:45:00.162Z,92.74
2022-12-04T16:48:03.254Z,92.09
2022-12-04T16:51:06.074Z,92.19
2022-12-04T16:54:10.479Z,93.01
2022-12-04T16:57:13.323Z,92.69
2022-12-04T17:00:17.760Z,92.69
2022-12-04T17:03:29.646Z,92.40
2022-12-04T17:06:33.262Z,92.30
2022-12-04T17:09:36.022Z,92.04
2022-12-04T17:12:39.777Z,91.98
2022-12-04T17:15:42.543Z,91.74
2022-12-04T17:18:45.351Z,91.70
2022-12-04T17:21:48.166Z,91.18
2022-12-04T17:24:55.978Z,90.96
2022-12-04T17:27:59.196Z,91.23
2022-12-04T17:31:04.654Z,91.18
2022-12-04T17:34:07.529Z,91.66
2022-12-04T17:37:10.410Z,91.69
2022-12-04T17:40:14.770Z,91.98
2022-12-04T17:43:21.889Z,92.49
2022-12-04T17:46:25.251Z,92.77
2022-12-04T17:49:28.240Z,93.15
2022-12-04T17:52:31.652Z,92.74
2022-12-04T17:55:35.173Z,92.49
2022-12-04T17:58:38.425Z,92.67
2022-12-04T18:01:41.237Z,93.07
2022-12-04T18:04:44.050Z,93.26
2022-12-04T18:07:46.943Z,93.02
2022-12-04T18:10:50.458Z,93.04
2022-12-04T18:13:59.444Z,93.10
2022-12-04T18:17:02.914Z,93.66
2022-12-04T18:20:07.049Z,93.80
2022-12-04T18:23:10.221Z,93.91
2022-12-04T18:26:15.353Z,94.23
2022-12-04T18:29:21.994Z,94.35
2022-12-04T18:32:24.788Z,94.52
2022-12-04T18:35:27.589Z,94.39
2022-12-04T18:38:32.105Z,93.81
2022-12-04T18:41:35.339Z,93.78
2022-12-04T18:44:38.152Z,94.71
2022-12-04T18:47:41.057Z,94.32
2022-12-04T18:50:43.821Z,93.99
2022-12-04T18:53:47.773Z,94.06
2022-12-04T18:56:51.422Z,94.03
2022-12-04T18:59:54.903Z,93.78
2022-12-04T19:02:58.049Z,93.97
2022-12-04T19:06:01.720Z,93.78
2022-12-04T19:09:11.331Z,93.59
2022-12-04T19:12:14.742Z,93.54
2022-12-04T19:15:17.584Z,93.82
2022-12-04T19:18:20.398Z,94.08
2022-12-04T19:21:24.132Z,94.19
2022-12-04T19:24:26.868Z,94.08
2022-12-04T19:27:29.688Z,94.30
2022-12-04T19:30:33.831Z,94.41
2022-12-04T19:33:37.361Z,94.19
2022-12-04T19:36:41.387Z,94.35
2022-12-04T19:39:44.370Z,93.69
2022-12-04T19:42:47.372Z,93.88
2022-12-04T19:45:50.436Z,94.34
2022-12-04T19:48:56.892Z,94.33
2022-12-04T19:51:59.709Z,94.24
2022-12-04T19:55:02.596Z,94.82
2022-12-04T19:58:05.400Z,94.41
2022-12-04T20:01:10.763Z,94.08
2022-12-04T20:04:13.627Z,94.01
2022-12-04T20:07:16.482Z,94.09
2022-12-04T20:10:19.436Z,94.06
2022-12-04T20:13:22.265Z,94.11
2022-12-04T20:16:26.690Z,94.12
2022-12-04T20:19:29.596Z,94.11
2022-12-04T20:22:32.502Z,94.37
2022-12-04T20:25:36.410Z,94.09
2022-12-04T20:28:41.230Z,94.48
2022-12-04T20:31:46.825Z,94.49
2022-12-04T20:34:49.655Z,94.21
2022-12-04T20:37:52.399Z,94.19
2022-12-04T20:40:55.220Z,94.64
2022-12-04T20:44:04.921Z,94.55
2022-12-04T20:47:07.817Z,94.14
2022-12-04T20:50:11.219Z,94.07
2022-12-04T20:53:14.085Z,93.79
2022-12-04T20:56:18.724Z,93.97
2022-12-04T20:59:23.357Z,94.31
2022-12-04T21:02:26.328Z,94.50
2022-12-04T21:05:29.112Z,94.84
2022-12-04T21:08:51.205Z,95.21
2022-12-04T21:11:55.685Z,94.72
2022-12-04T21:15:17.419Z,94.83
2022-12-04T21:18:20.242Z,94.76
2022-12-04T21:21:23.076Z,95.23
2022-12-04T21:24:30.497Z,94.49
2022-12-04T21:27:33.317Z,95.00
2022-12-04T21:30:36.126Z,95.24
2022-12-04T21:33:38.926Z,95.41
2022-12-04T21:36:42.783Z,95.42
2022-12-04T21:39:45.710Z,95.21
2022-12-04T21:42:48.467Z,95.31
2022-12-04T21:46:09.375Z,95.66
2022-12-04T21:49:13.916Z,95.37
2022-12-04T21:52:17.784Z,95.06
2022-12-04T21:55:20.593Z,95.27
2022-12-04T21:58:26.098Z,95.75
2022-12-04T22:01:29.080Z,95.41
2022-12-04T22:04:31.944Z,95.16
2022-12-04T22:07:34.785Z,95.07
2022-12-04T22:10:45.752Z,95.24
2022-12-04T22:13:48.658Z,95.25
2022-12-04T22:16:52.523Z,94.96
2022-12-04T22:19:55.715Z,94.44
2022-12-04T22:22:59.254Z,94.26
2022-12-04T22:26:10.732Z,94.32
2022-12-04T22:29:42.042Z,94.48
2022-12-04T22:32:36.881Z,94.60
2022-12-04T22:35:39.673Z,94.40
2022-12-04T22:39:05.964Z,94.93
2022-12-04T22:42:05.684Z,94.77
2022-12-04T22:45:09.758Z,94.66
2022-12-04T22:48:12.532Z,94.37
2022-12-04T22:51:18.778Z,94.04
2022-12-04T22:54:21.636Z,94.16
2022-12-04T22:57:25.057Z,93.72
2022-12-04T23:00:28.426Z,93.73
2022-12-04T23:03:31.223Z,93.49
2022-12-04T23:06:34.553Z,93.41
2022-12-04T23:09:37.523Z,93.47
2022-12-04T23:12:40.361Z,93.35
2022-12-04T23:15:43.158Z,93.19
2022-12-04T23:18:46.014Z,93.42
2022-12-04T23:21:56.409Z,93.21
2022-12-04T23:25:00.360Z,93.30
2022-12-04T23:28:03.202Z,93.12
2022-12-04T23:31:06.286Z,93.42
2022-12-04T23:34:09.100Z,93.20
2022-12-04T23:37:24.164Z,93.45
2022-12-04T23:40:26.794Z,93.05
2022-12-04T23:43:29.678Z,92.99
2022-12-04T23:46:33.243Z,92.55
2022-12-04T23:49:36.176Z,92.55
2022-12-04T23:52:39.056Z,92.27
2022-12-04T23:55:41.716Z,92.76
2022-12-04T23:58:45.772Z,92.84
